This is the latest recevied weather packets stored in our database for station/object EA8DNP-14. If no packets are shown the sender has not sent any weather packets the latest 10 day(s).
| Time | Temp. | Humidity | Pressure | Rain* | Wind** | Luminosity | Snow |
|---|---|---|---|---|---|---|---|
| 1787753976 | 25.56° C | 36% | 903.4 hPa | - | - | - | - |
| 1787753076 | 26.11° C | 34% | 903.4 hPa | - | - | - | - |
| 1787752176 | 26.11° C | 34% | 903.3 hPa | - | - | - | - |
| 1787751276 | 26.11° C | 33% | 903.4 hPa | - | - | - | - |
| 1787750376 | 27.22° C | 32% | 903.6 hPa | - | - | - | - |
| 1787749714 | 26.67° C | 32% | 903.6 hPa | - | - | - | - |
| 1787749476 | 26.67° C | 32% | 903.6 hPa | - | - | - | - |
| 1787748576 | 26.11° C | 35% | 903.6 hPa | - | - | - | - |
| 1787747675 | 26.11° C | 36% | 903.7 hPa | - | - | - | - |
| 1787746831 | 25.56° C | 38% | 903.9 hPa | - | - | - | - |
| 1787746775 | 25.56° C | 38% | 903.9 hPa | - | - | - | - |
| 1787745875 | 25° C | 38% | 904.1 hPa | - | - | - | - |
| 1787744975 | 24.44° C | 39% | 904.2 hPa | - | - | - | - |
| 1787744075 | 24.44° C | 39% | 904.2 hPa | - | - | - | - |
| 1787743175 | 25.56° C | 38% | 904.3 hPa | - | - | - | - |
| 1787742275 | 26.11° C | 37% | 904.1 hPa | - | - | - | - |
| 1787741375 | 26.67° C | 36% | 904 hPa | - | - | - | - |
| 1787740477 | 27.22° C | 36% | 903.9 hPa | - | - | - | - |
| 1787739578 | 28.89° C | 34% | 903.7 hPa | - | - | - | - |
| 1787738674 | 27.22° C | 36% | 903.7 hPa | - | - | - | - |
| 1787737994 | 26.11° C | 37% | 903.5 hPa | - | - | - | - |
| 1787737774 | 26.11° C | 37% | 903.5 hPa | - | - | - | - |
| 1787736874 | 26.67° C | 36% | 903.5 hPa | - | - | - | - |
| 1787735974 | 26.67° C | 36% | 903.2 hPa | - | - | - | - |
| 1787735074 | 26.67° C | 38% | 902.9 hPa | - | - | - | - |
* Rain since midnight (hover to see other rain measurements)
** Current wind speed in m/s (hover to see current wind gust speed)